Time;durP1;ratioP1;P1;durP2;ratioP2;P2;SDS_P1;SDS_P2;PMS_P1;PMS_P2;Temp;Humidity;BMP_temperature;BMP_pressure;BME280_temperature;BME280_humidity;BME280_pressure;Samples;Min_cycle;Max_cycle;Signal;HPM_P1;HPM_P2
2021/08/20 00:00:07;;;;;;;48.20;3.67;;;;;;;;;;5014725;28;20040;-43
2021/08/20 00:02:34;;;;;;;27.60;2.97;;;;;;;;;;5012333;28;20033;-44
2021/08/20 00:05:01;;;;;;;32.53;3.67;;;;;;;;;;5024479;28;20029;-44
2021/08/20 00:07:28;;;;;;;23.58;3.13;;;;;;;;;;5026725;28;20028;-43
2021/08/20 00:09:56;;;;;;;17.50;2.63;;;;;;;;;;5024552;28;20025;-43
2021/08/20 00:12:23;;;;;;;27.75;3.70;;;;;;;;;;5026766;28;20025;-43
2021/08/20 00:14:50;;;;;;;31.15;3.78;;;;;;;;;;5020755;28;20028;-44
2021/08/20 00:17:18;;;;;;;33.22;3.90;;;;;;;;;;5028206;28;20080;-44
2021/08/20 00:19:45;;;;;;;24.02;4.25;;;;;;;;;;5028698;28;20039;-48
2021/08/20 00:22:12;;;;;;;29.42;4.68;;;;;;;;;;5023781;28;20230;-43
2021/08/20 00:24:39;;;;;;;44.38;5.88;;;;;;;;;;5019967;28;20428;-43
2021/08/20 00:27:06;;;;;;;36.35;4.75;;;;;;;;;;5023586;28;20035;-45
2021/08/20 00:29:33;;;;;;;41.85;4.55;;;;;;;;;;5024662;28;20053;-43
2021/08/20 00:32:00;;;;;;;31.33;4.82;;;;;;;;;;5025458;28;20570;-43
2021/08/20 00:34:27;;;;;;;43.25;5.10;;;;;;;;;;5024790;28;20029;-43
2021/08/20 00:36:54;;;;;;;40.78;4.70;;;;;;;;;;5025656;28;20585;-43
2021/08/20 00:39:22;;;;;;;35.65;4.70;;;;;;;;;;5024595;28;20051;-43
2021/08/20 00:41:49;;;;;;;41.70;4.72;;;;;;;;;;5025421;28;20022;-43
2021/08/20 00:44:17;;;;;;;39.47;5.18;;;;;;;;;;5017598;28;20041;-42
2021/08/20 00:46:44;;;;;;;32.63;4.72;;;;;;;;;;5025694;28;20481;-43
2021/08/20 00:49:12;;;;;;;34.90;4.75;;;;;;;;;;5023722;28;20137;-44
2021/08/20 00:51:40;;;;;;;33.33;4.85;;;;;;;;;;5025570;28;20013;-44
2021/08/20 00:54:10;;;;;;;34.40;5.10;;;;;;;;;;5026170;28;20030;-44
2021/08/20 00:56:44;;;;;;;42.63;5.43;;;;;;;;;;5025944;28;20034;-42
2021/08/20 00:59:12;;;;;;;38.30;5.47;;;;;;;;;;5023543;28;20068;-42
2021/08/20 01:01:39;;;;;;;34.60;6.15;;;;;;;;;;5023801;28;20536;-42
2021/08/20 01:04:07;;;;;;;39.72;5.97;;;;;;;;;;5024232;28;20041;-43
2021/08/20 01:06:37;;;;;;;36.10;6.50;;;;;;;;;;5023085;28;20408;-43
2021/08/20 01:09:04;;;;;;;35.35;6.97;;;;;;;;;;5021178;28;20056;-42
2021/08/20 01:11:32;;;;;;;47.53;7.50;;;;;;;;;;5025196;28;20083;-42
2021/08/20 01:13:59;;;;;;;39.13;7.82;;;;;;;;;;5024823;28;20021;-42
2021/08/20 01:16:26;;;;;;;36.90;6.85;;;;;;;;;;5022999;28;20028;-42
2021/08/20 01:18:53;;;;;;;42.53;6.68;;;;;;;;;;5026242;28;20033;-43
2021/08/20 01:21:21;;;;;;;52.17;7.85;;;;;;;;;;5027184;28;20061;-43
2021/08/20 01:23:53;;;;;;;57.63;7.68;;;;;;;;;;5025435;28;20029;-45
2021/08/20 01:26:21;;;;;;;36.60;6.55;;;;;;;;;;5017473;28;20016;-43
2021/08/20 01:28:48;;;;;;;40.08;7.82;;;;;;;;;;5025984;28;20435;-43
2021/08/20 01:31:16;;;;;;;35.60;6.25;;;;;;;;;;5026608;28;20096;-45
2021/08/20 01:33:44;;;;;;;31.25;6.15;;;;;;;;;;5026670;28;20061;-43
2021/08/20 01:36:11;;;;;;;31.42;6.18;;;;;;;;;;5018665;28;20029;-44
2021/08/20 01:38:48;;;;;;;41.08;6.57;;;;;;;;;;5024608;28;20038;-43
2021/08/20 01:41:15;;;;;;;43.08;6.05;;;;;;;;;;5023584;28;20060;-45
2021/08/20 01:43:42;;;;;;;33.47;5.78;;;;;;;;;;5025246;28;20025;-45
2021/08/20 01:46:09;;;;;;;30.55;5.97;;;;;;;;;;5019879;28;20025;-43
2021/08/20 01:48:36;;;;;;;35.28;6.32;;;;;;;;;;5026718;28;20076;-46
2021/08/20 01:51:06;;;;;;;28.80;5.22;;;;;;;;;;5024726;28;20029;-44
2021/08/20 01:53:33;;;;;;;41.00;6.35;;;;;;;;;;5023257;28;20035;-46
2021/08/20 01:56:00;;;;;;;33.80;5.78;;;;;;;;;;5025631;28;20026;-41
2021/08/20 01:58:27;;;;;;;29.20;5.10;;;;;;;;;;5019479;28;20037;-43
2021/08/20 02:00:54;;;;;;;44.00;6.30;;;;;;;;;;5026814;28;20028;-44
2021/08/20 02:03:21;;;;;;;33.05;6.20;;;;;;;;;;5024126;28;20026;-48
2021/08/20 02:05:48;;;;;;;32.10;5.60;;;;;;;;;;5029841;28;20025;-45
2021/08/20 02:08:15;;;;;;;30.52;4.63;;;;;;;;;;5025668;28;20026;-42
2021/08/20 02:10:42;;;;;;;24.63;4.82;;;;;;;;;;5028018;28;20025;-45
2021/08/20 02:13:09;;;;;;;37.53;6.15;;;;;;;;;;5026396;28;20037;-45
2021/08/20 02:15:37;;;;;;;30.60;5.13;;;;;;;;;;5028312;28;20372;-40
2021/08/20 02:18:04;;;;;;;38.28;5.72;;;;;;;;;;5025945;28;20067;-42
2021/08/20 02:20:31;;;;;;;38.75;4.85;;;;;;;;;;5026848;28;20109;-39
2021/08/20 02:22:58;;;;;;;29.23;5.10;;;;;;;;;;5027049;28;20024;-45
2021/08/20 02:25:25;;;;;;;38.72;6.07;;;;;;;;;;5024423;28;20022;-50
2021/08/20 02:27:52;;;;;;;37.65;6.13;;;;;;;;;;5026859;28;20108;-50
2021/08/20 02:30:19;;;;;;;29.45;5.22;;;;;;;;;;5026385;28;20030;-51
2021/08/20 02:32:46;;;;;;;30.08;4.68;;;;;;;;;;5028719;28;20025;-51
2021/08/20 02:35:13;;;;;;;37.80;5.30;;;;;;;;;;5028221;28;20049;-51
2021/08/20 02:37:40;;;;;;;35.00;6.00;;;;;;;;;;5030922;28;20029;-54
2021/08/20 02:40:08;;;;;;;27.95;4.90;;;;;;;;;;5031214;28;20032;-51
2021/08/20 02:42:35;;;;;;;27.15;4.70;;;;;;;;;;5031992;28;20021;-53
2021/08/20 02:45:02;;;;;;;29.10;5.38;;;;;;;;;;5033188;28;20105;-52
2021/08/20 02:47:29;;;;;;;26.00;4.20;;;;;;;;;;5033921;28;20021;-52
2021/08/20 02:49:56;;;;;;;33.30;5.40;;;;;;;;;;5033000;28;20016;-51
2021/08/20 02:52:23;;;;;;;26.90;4.53;;;;;;;;;;5033794;28;20049;-49
2021/08/20 02:54:50;;;;;;;30.63;5.05;;;;;;;;;;5029574;28;20048;-51
2021/08/20 02:57:17;;;;;;;23.60;4.93;;;;;;;;;;5028113;28;20455;-49
2021/08/20 02:59:44;;;;;;;23.60;4.50;;;;;;;;;;5033491;28;20025;-49
2021/08/20 03:02:11;;;;;;;25.75;4.72;;;;;;;;;;5033038;28;20061;-48
2021/08/20 03:04:38;;;;;;;19.48;4.50;;;;;;;;;;5048023;28;20417;-49
2021/08/20 03:07:05;;;;;;;22.13;4.18;;;;;;;;;;5031738;28;20496;-50
2021/08/20 03:09:32;;;;;;;19.33;4.20;;;;;;;;;;5032325;28;20120;-55
2021/08/20 03:11:59;;;;;;;16.65;4.00;;;;;;;;;;5032760;28;20049;-54
2021/08/20 03:14:26;;;;;;;18.73;3.72;;;;;;;;;;5033004;28;20036;-55
2021/08/20 03:16:53;;;;;;;17.00;4.28;;;;;;;;;;5028932;28;20370;-55
2021/08/20 03:19:20;;;;;;;21.48;3.85;;;;;;;;;;5033697;28;20022;-52
2021/08/20 03:21:48;;;;;;;20.13;3.97;;;;;;;;;;5033311;28;20764;-51
2021/08/20 03:24:15;;;;;;;27.08;4.60;;;;;;;;;;5033220;28;20031;-51
2021/08/20 03:26:42;;;;;;;19.40;3.60;;;;;;;;;;5028512;28;20060;-55
2021/08/20 03:29:09;;;;;;;21.55;3.97;;;;;;;;;;5033422;28;20046;-52
2021/08/20 03:31:36;;;;;;;21.80;4.68;;;;;;;;;;5033628;28;20067;-52
2021/08/20 03:34:03;;;;;;;19.92;4.00;;;;;;;;;;5032784;28;20052;-56
2021/08/20 03:36:30;;;;;;;26.77;4.40;;;;;;;;;;5028131;28;20037;-50
2021/08/20 03:38:57;;;;;;;13.20;3.55;;;;;;;;;;5033639;28;20045;-56
2021/08/20 03:41:24;;;;;;;23.08;4.15;;;;;;;;;;5033473;28;20076;-49
2021/08/20 03:43:51;;;;;;;24.67;4.72;;;;;;;;;;5032866;28;20091;-52
2021/08/20 03:46:18;;;;;;;17.55;3.72;;;;;;;;;;5030357;28;20024;-52
2021/08/20 03:48:45;;;;;;;21.30;4.15;;;;;;;;;;5029647;28;20022;-52
2021/08/20 03:51:13;;;;;;;18.65;3.72;;;;;;;;;;5033117;28;20029;-52
2021/08/20 03:53:40;;;;;;;22.33;3.65;;;;;;;;;;5032698;28;20049;-47
2021/08/20 03:56:07;;;;;;;14.30;3.45;;;;;;;;;;5032531;28;20026;-52
2021/08/20 03:58:34;;;;;;;15.32;4.00;;;;;;;;;;5027976;28;20030;-50
2021/08/20 04:01:01;;;;;;;17.00;3.90;;;;;;;;;;5032884;28;20025;-52
2021/08/20 04:03:28;;;;;;;15.18;2.80;;;;;;;;;;5032793;28;20116;-52
2021/08/20 04:05:55;;;;;;;12.05;2.80;;;;;;;;;;5032044;28;20021;-52
2021/08/20 04:08:22;;;;;;;11.90;3.13;;;;;;;;;;5026749;28;20032;-52
2021/08/20 04:10:49;;;;;;;13.55;3.55;;;;;;;;;;5033308;28;20032;-50
2021/08/20 04:13:17;;;;;;;17.83;3.10;;;;;;;;;;5032453;28;20152;-49
2021/08/20 04:15:44;;;;;;;15.75;3.20;;;;;;;;;;5032195;28;20017;-48
2021/08/20 04:18:11;;;;;;;13.00;3.30;;;;;;;;;;5027639;28;20033;-49
2021/08/20 04:20:39;;;;;;;12.90;2.97;;;;;;;;;;5032741;28;20329;-50
2021/08/20 04:23:06;;;;;;;15.90;3.58;;;;;;;;;;5032415;28;20021;-50
2021/08/20 04:25:33;;;;;;;13.88;3.03;;;;;;;;;;5031799;28;20477;-50
2021/08/20 04:28:00;;;;;;;16.25;3.08;;;;;;;;;;5027354;28;20034;-50
2021/08/20 04:30:30;;;;;;;13.10;3.03;;;;;;;;;;5032039;28;20033;-51
2021/08/20 04:32:58;;;;;;;15.80;3.28;;;;;;;;;;5032660;28;20108;-49
2021/08/20 04:35:26;;;;;;;16.15;2.90;;;;;;;;;;5031517;28;20473;-48
2021/08/20 04:37:53;;;;;;;16.75;3.45;;;;;;;;;;5027288;28;20091;-50
2021/08/20 04:40:20;;;;;;;9.15;2.60;;;;;;;;;;5031948;28;20071;-52
2021/08/20 04:42:47;;;;;;;13.00;3.35;;;;;;;;;;5032163;28;20017;-51
2021/08/20 04:45:15;;;;;;;13.60;3.40;;;;;;;;;;5031489;28;20053;-49
2021/08/20 04:47:46;;;;;;;9.50;2.90;;;;;;;;;;5029816;28;20546;-49
2021/08/20 04:50:14;;;;;;;15.65;3.10;;;;;;;;;;5029740;28;20033;-47
2021/08/20 04:52:41;;;;;;;14.48;2.85;;;;;;;;;;5031899;28;20017;-51
2021/08/20 04:55:08;;;;;;;10.05;2.65;;;;;;;;;;5031795;28;20030;-49
2021/08/20 04:57:36;;;;;;;13.23;2.40;;;;;;;;;;5030771;28;20029;-47
2021/08/20 05:00:06;;;;;;;9.90;2.55;;;;;;;;;;5026981;28;20028;-48
2021/08/20 05:02:35;;;;;;;14.27;2.60;;;;;;;;;;5031961;28;20629;-48
2021/08/20 05:05:05;;;;;;;7.43;2.78;;;;;;;;;;5032044;28;20535;-53
2021/08/20 05:07:35;;;;;;;8.80;2.35;;;;;;;;;;5029010;28;20047;-51
2021/08/20 05:10:05;;;;;;;8.98;2.60;;;;;;;;;;5035683;28;20469;-51
2021/08/20 05:12:33;;;;;;;10.25;2.30;;;;;;;;;;5031804;28;20469;-49
2021/08/20 05:15:00;;;;;;;8.27;2.28;;;;;;;;;;5031430;28;20052;-51
2021/08/20 05:17:27;;;;;;;8.43;2.30;;;;;;;;;;5029612;28;20378;-48
2021/08/20 05:19:54;;;;;;;8.68;2.10;;;;;;;;;;5026950;28;20056;-52
2021/08/20 05:22:21;;;;;;;6.93;1.98;;;;;;;;;;5031640;28;20026;-50
2021/08/20 05:24:48;;;;;;;7.65;2.38;;;;;;;;;;5029355;28;20021;-47
2021/08/20 05:27:15;;;;;;;8.80;2.30;;;;;;;;;;5030635;28;20032;-47
2021/08/20 05:29:42;;;;;;;7.13;2.00;;;;;;;;;;5033921;28;20042;-53
2021/08/20 05:32:09;;;;;;;7.20;1.70;;;;;;;;;;5034452;28;20067;-48
2021/08/20 05:34:36;;;;;;;7.95;1.92;;;;;;;;;;5031010;28;20105;-52
2021/08/20 05:37:04;;;;;;;8.60;1.90;;;;;;;;;;5030864;28;20527;-47
2021/08/20 05:39:31;;;;;;;8.48;2.15;;;;;;;;;;5029861;28;20037;-50
2021/08/20 05:41:58;;;;;;;8.90;2.10;;;;;;;;;;5029865;28;20018;-53
2021/08/20 05:44:25;;;;;;;6.15;2.00;;;;;;;;;;5031326;28;20045;-50
2021/08/20 05:46:52;;;;;;;8.32;1.70;;;;;;;;;;5030892;28;20022;-57
2021/08/20 05:49:19;;;;;;;9.52;2.13;;;;;;;;;;5028357;28;20029;-52
2021/08/20 05:51:46;;;;;;;9.05;2.17;;;;;;;;;;5030256;28;20013;-52
2021/08/20 05:54:13;;;;;;;7.15;1.90;;;;;;;;;;5030125;28;20022;-52
2021/08/20 05:56:40;;;;;;;7.53;1.95;;;;;;;;;;5030361;28;20022;-50
2021/08/20 05:59:08;;;;;;;5.88;1.80;;;;;;;;;;5030476;28;20030;-51
2021/08/20 06:01:35;;;;;;;6.85;1.90;;;;;;;;;;5026452;28;20380;-55
2021/08/20 06:04:02;;;;;;;8.20;1.75;;;;;;;;;;5031001;28;20022;-56
2021/08/20 06:06:29;;;;;;;5.53;1.45;;;;;;;;;;5030920;28;20155;-50
2021/08/20 06:08:56;;;;;;;7.25;1.83;;;;;;;;;;5030601;28;20094;-50
2021/08/20 06:11:23;;;;;;;5.57;1.80;;;;;;;;;;5030166;28;20026;-51
2021/08/20 06:13:50;;;;;;;6.78;1.77;;;;;;;;;;5033691;28;20384;-53
2021/08/20 06:16:17;;;;;;;9.00;1.85;;;;;;;;;;5034854;28;20156;-54
2021/08/20 06:18:44;;;;;;;6.15;1.60;;;;;;;;;;5033883;28;20033;-56
2021/08/20 06:21:11;;;;;;;8.48;2.00;;;;;;;;;;5032171;28;20396;-50
2021/08/20 06:23:38;;;;;;;11.98;1.67;;;;;;;;;;5034991;28;20224;-50
2021/08/20 06:26:05;;;;;;;6.40;1.70;;;;;;;;;;5034340;28;20473;-51
2021/08/20 06:28:32;;;;;;;6.82;1.35;;;;;;;;;;5034158;28;20112;-47
2021/08/20 06:31:04;;;;;;;4.97;1.60;;;;;;;;;;5029443;28;20061;-54
2021/08/20 06:33:31;;;;;;;8.07;2.10;;;;;;;;;;5034745;28;20041;-51
2021/08/20 06:35:59;;;;;;;6.85;1.70;;;;;;;;;;5034651;28;20013;-50
2021/08/20 06:38:26;;;;;;;7.13;1.77;;;;;;;;;;5034327;28;20045;-48
2021/08/20 06:40:53;;;;;;;5.82;1.75;;;;;;;;;;5028947;28;20026;-49
2021/08/20 06:43:20;;;;;;;7.35;1.80;;;;;;;;;;5034337;28;20033;-51
2021/08/20 06:45:47;;;;;;;5.70;1.65;;;;;;;;;;5034851;28;20476;-48
2021/08/20 06:48:17;;;;;;;2.92;1.00;;;;;;;;;;5034023;28;20172;-47
2021/08/20 06:50:45;;;;;;;3.83;1.30;;;;;;;;;;5031001;28;20037;-51
2021/08/20 06:53:12;;;;;;;7.22;1.42;;;;;;;;;;5032965;28;20481;-46
2021/08/20 06:55:39;;;;;;;3.45;1.20;;;;;;;;;;5033830;28;20026;-50
2021/08/20 06:58:06;;;;;;;5.43;1.30;;;;;;;;;;5033502;28;20083;-49
2021/08/20 07:00:33;;;;;;;3.38;1.23;;;;;;;;;;5033641;28;20108;-47
2021/08/20 07:03:00;;;;;;;3.80;1.40;;;;;;;;;;5029338;28;20084;-50
2021/08/20 07:05:27;;;;;;;3.50;1.50;;;;;;;;;;5033886;28;20029;-52
2021/08/20 07:07:54;;;;;;;3.67;1.20;;;;;;;;;;5034031;28;20087;-47
2021/08/20 07:10:21;;;;;;;4.60;1.63;;;;;;;;;;5032656;28;20072;-50
2021/08/20 07:12:48;;;;;;;4.35;1.00;;;;;;;;;;5029136;28;20556;-47
2021/08/20 07:15:15;;;;;;;5.05;1.45;;;;;;;;;;5033983;28;20061;-50
2021/08/20 07:17:42;;;;;;;5.60;1.13;;;;;;;;;;5033826;28;20065;-49
2021/08/20 07:20:11;;;;;;;3.75;0.93;;;;;;;;;;5032994;28;20022;-50
2021/08/20 07:22:38;;;;;;;6.85;1.40;;;;;;;;;;5028171;28;20043;-51
2021/08/20 07:25:05;;;;;;;4.32;1.10;;;;;;;;;;5033592;28;20109;-47
2021/08/20 07:27:32;;;;;;;4.35;1.10;;;;;;;;;;5033408;28;20010;-49
2021/08/20 07:29:59;;;;;;;3.40;1.00;;;;;;;;;;5033196;28;20487;-50
2021/08/20 07:32:26;;;;;;;4.05;1.30;;;;;;;;;;5027944;28;20448;-48
2021/08/20 07:34:53;;;;;;;3.08;0.90;;;;;;;;;;5033688;28;20021;-48
2021/08/20 07:37:20;;;;;;;4.70;1.00;;;;;;;;;;5033619;28;20033;-49
2021/08/20 07:39:47;;;;;;;4.43;1.33;;;;;;;;;;5032618;28;20481;-47
2021/08/20 07:42:14;;;;;;;4.95;0.93;;;;;;;;;;5030495;28;20025;-50
2021/08/20 07:44:41;;;;;;;2.17;0.85;;;;;;;;;;5036304;28;20392;-50
2021/08/20 07:47:08;;;;;;;6.82;1.20;;;;;;;;;;5033239;28;20021;-50
2021/08/20 07:49:35;;;;;;;3.00;0.90;;;;;;;;;;5032910;28;20116;-50
2021/08/20 07:52:02;;;;;;;2.38;0.95;;;;;;;;;;5029839;28;20468;-48
2021/08/20 07:54:29;;;;;;;3.13;1.10;;;;;;;;;;5029920;28;20065;-46
2021/08/20 07:56:56;;;;;;;2.72;0.90;;;;;;;;;;5032711;28;20029;-50
2021/08/20 07:59:23;;;;;;;4.22;1.27;;;;;;;;;;5033017;28;20129;-47
2021/08/20 08:01:50;;;;;;;2.05;0.85;;;;;;;;;;5032590;28;20029;-47
2021/08/20 08:04:17;;;;;;;2.47;0.80;;;;;;;;;;5028179;28;20029;-47
2021/08/20 08:06:44;;;;;;;2.63;0.98;;;;;;;;;;5032985;28;20025;-50
2021/08/20 08:09:11;;;;;;;3.28;0.90;;;;;;;;;;5032792;28;20029;-51
2021/08/20 08:11:38;;;;;;;3.40;1.00;;;;;;;;;;5032320;28;20485;-47
2021/08/20 08:14:08;;;;;;;2.97;1.00;;;;;;;;;;5035784;28;20032;-47
2021/08/20 08:16:37;;;;;;;3.33;0.98;;;;;;;;;;5032972;28;20071;-48
2021/08/20 08:19:05;;;;;;;2.13;0.85;;;;;;;;;;5032338;28;20028;-57
2021/08/20 08:21:33;;;;;;;3.25;0.63;;;;;;;;;;5032288;28;20029;-56
2021/08/20 08:24:02;;;;;;;4.10;1.02;;;;;;;;;;5032670;28;20025;-53
2021/08/20 08:26:29;;;;;;;5.03;1.00;;;;;;;;;;5032483;28;20017;-55
2021/08/20 08:28:56;;;;;;;1.98;0.63;;;;;;;;;;5032182;28;20020;-55
2021/08/20 08:31:23;;;;;;;2.53;1.02;;;;;;;;;;5032142;28;20045;-55
2021/08/20 08:33:51;;;;;;;3.78;0.70;;;;;;;;;;5026907;28;20496;-54
2021/08/20 08:36:18;;;;;;;1.55;0.70;;;;;;;;;;5032035;28;20109;-53
2021/08/20 08:38:45;;;;;;;1.45;0.75;;;;;;;;;;5032332;28;20033;-56
2021/08/20 08:41:12;;;;;;;4.53;0.80;;;;;;;;;;5031652;28;20018;-55
2021/08/20 08:43:41;;;;;;;1.75;0.68;;;;;;;;;;5027091;28;20037;-54
2021/08/20 08:46:10;;;;;;;2.60;0.60;;;;;;;;;;5032282;28;20045;-55
2021/08/20 08:48:40;;;;;;;3.53;1.05;;;;;;;;;;5032136;28;20481;-47
2021/08/20 08:51:09;;;;;;;2.40;0.90;;;;;;;;;;5030559;28;20025;-50
2021/08/20 08:53:37;;;;;;;1.85;0.60;;;;;;;;;;5015307;28;20056;-47
2021/08/20 08:56:04;;;;;;;2.85;1.00;;;;;;;;;;5029840;28;20469;-48
2021/08/20 08:58:34;;;;;;;3.83;0.73;;;;;;;;;;5031629;28;20033;-51
2021/08/20 09:01:21;;;;;;;2.08;0.73;;;;;;;;;;5030820;28;20053;-49
2021/08/20 09:03:49;;;;;;;2.53;0.80;;;;;;;;;;5017075;28;20096;-47
2021/08/20 09:06:36;;;;;;;1.60;0.85;;;;;;;;;;5030358;28;20021;-47
2021/08/20 09:09:07;;;;;;;2.15;0.50;;;;;;;;;;5020193;28;20381;-48
2021/08/20 09:11:34;;;;;;;1.67;0.52;;;;;;;;;;5031535;28;20473;-49
2021/08/20 09:14:01;;;;;;;1.45;0.70;;;;;;;;;;5028052;28;20075;-48
2021/08/20 09:16:37;;;;;;;1.48;0.77;;;;;;;;;;5029398;28;20109;-47
2021/08/20 09:19:17;;;;;;;2.10;0.60;;;;;;;;;;5032027;28;20049;-48
2021/08/20 09:21:47;;;;;;;2.40;0.60;;;;;;;;;;5031786;28;20028;-49
2021/08/20 09:24:30;;;;;;;2.35;0.60;;;;;;;;;;5016025;28;20040;-48
2021/08/20 09:27:17;;;;;;;2.83;0.90;;;;;;;;;;5030855;28;20543;-47
2021/08/20 09:29:53;;;;;;;2.17;0.70;;;;;;;;;;5031465;28;20052;-48
2021/08/20 09:32:21;;;;;;;2.03;0.50;;;;;;;;;;5031338;28;20473;-48
2021/08/20 09:34:52;;;;;;;2.92;0.70;;;;;;;;;;5026931;28;20029;-48
2021/08/20 09:37:21;;;;;;;2.05;0.60;;;;;;;;;;5031690;28;20546;-47
2021/08/20 09:39:49;;;;;;;2.85;0.50;;;;;;;;;;5031458;28;20041;-48
2021/08/20 09:42:18;;;;;;;1.70;0.40;;;;;;;;;;5030302;28;20465;-48
2021/08/20 09:44:49;;;;;;;1.65;0.65;;;;;;;;;;5027858;28;20021;-49
2021/08/20 09:47:16;;;;;;;1.88;0.50;;;;;;;;;;5029400;28;20026;-50
2021/08/20 09:49:56;;;;;;;2.78;1.02;;;;;;;;;;5030624;28;20071;-47
2021/08/20 09:52:30;;;;;;;1.27;0.50;;;;;;;;;;5030330;28;20076;-47
2021/08/20 09:54:58;;;;;;;1.55;0.50;;;;;;;;;;5028252;28;20033;-48
2021/08/20 09:57:28;;;;;;;3.88;0.68;;;;;;;;;;5028200;28;20428;-47
2021/08/20 09:59:56;;;;;;;0.93;0.43;;;;;;;;;;5030635;28;20017;-54
2021/08/20 10:02:27;;;;;;;2.08;0.70;;;;;;;;;;5029473;28;20108;-48
2021/08/20 10:04:55;;;;;;;2.85;0.47;;;;;;;;;;5030549;28;20022;-48
2021/08/20 10:07:23;;;;;;;5.93;0.77;;;;;;;;;;5026397;28;20057;-48
2021/08/20 10:09:50;;;;;;;5.60;0.50;;;;;;;;;;5030986;28;20026;-50
2021/08/20 10:12:22;;;;;;;1.05;0.47;;;;;;;;;;5018960;28;20037;-47
2021/08/20 10:14:50;;;;;;;2.15;0.50;;;;;;;;;;5031494;28;20017;-49
2021/08/20 10:17:17;;;;;;;2.97;0.50;;;;;;;;;;5025774;28;20121;-47
2021/08/20 10:19:50;;;;;;;2.33;0.52;;;;;;;;;;5031220;28;20056;-50
2021/08/20 10:22:18;;;;;;;4.00;0.63;;;;;;;;;;5031124;28;20018;-47
2021/08/20 10:24:45;;;;;;;3.17;0.73;;;;;;;;;;5030875;28;20473;-47
2021/08/20 10:27:13;;;;;;;7.03;0.82;;;;;;;;;;5025995;28;20029;-47
2021/08/20 10:29:41;;;;;;;6.10;0.50;;;;;;;;;;5031110;28;20041;-50
2021/08/20 10:32:09;;;;;;;2.63;0.65;;;;;;;;;;5030896;28;20021;-49
2021/08/20 10:34:39;;;;;;;4.57;0.52;;;;;;;;;;5030462;28;20132;-47
2021/08/20 10:37:06;;;;;;;3.17;0.70;;;;;;;;;;5025462;28;20029;-49
2021/08/20 10:39:33;;;;;;;4.95;0.63;;;;;;;;;;5030950;28;20100;-47
2021/08/20 10:42:07;;;;;;;3.80;0.73;;;;;;;;;;5030879;28;20374;-47
2021/08/20 10:44:39;;;;;;;5.80;0.80;;;;;;;;;;5029282;28;20032;-47
2021/08/20 10:47:06;;;;;;;4.03;0.70;;;;;;;;;;5026342;28;20108;-50
2021/08/20 10:49:37;;;;;;;5.97;0.88;;;;;;;;;;5030358;28;20026;-48
2021/08/20 10:52:04;;;;;;;7.15;0.82;;;;;;;;;;5030302;28;20021;-47
2021/08/20 10:54:34;;;;;;;5.78;0.90;;;;;;;;;;5030751;28;20034;-47
2021/08/20 10:57:05;;;;;;;5.32;0.65;;;;;;;;;;5024549;28;20537;-52
2021/08/20 10:59:45;;;;;;;5.15;0.70;;;;;;;;;;5041198;28;20063;-47
2021/08/20 11:02:21;;;;;;;3.88;0.82;;;;;;;;;;5032158;28;20045;-48
2021/08/20 11:05:06;;;;;;;7.18;1.08;;;;;;;;;;5034125;28;20033;-49
2021/08/20 11:07:42;;;;;;;6.78;0.90;;;;;;;;;;5028768;28;20403;-50
2021/08/20 11:10:12;;;;;;;4.65;1.00;;;;;;;;;;5032123;28;20034;-49
2021/08/20 11:12:49;;;;;;;11.68;1.40;;;;;;;;;;5034405;28;20022;-47
2021/08/20 11:15:19;;;;;;;10.05;1.60;;;;;;;;;;5031991;28;20415;-49
2021/08/20 11:17:50;;;;;;;20.55;1.98;;;;;;;;;;5028762;28;20057;-50
2021/08/20 11:20:19;;;;;;;13.45;1.50;;;;;;;;;;5033025;28;20022;-48
2021/08/20 11:23:09;;;;;;;9.73;1.60;;;;;;;;;;5034083;28;20071;-43
2021/08/20 11:25:36;;;;;;;10.75;1.17;;;;;;;;;;5031348;28;20107;-44
2021/08/20 11:28:05;;;;;;;349.60;30.75;;;;;;;;;;5033188;28;20032;-43
2021/08/20 11:30:32;;;;;;;301.17;19.77;;;;;;;;;;5036769;28;20046;-43
2021/08/20 11:33:19;;;;;;;108.72;9.73;;;;;;;;;;5033778;28;20056;-44
2021/08/20 11:35:50;;;;;;;105.45;9.27;;;;;;;;;;5033600;28;20076;-46
2021/08/20 11:38:38;;;;;;;94.00;8.50;;;;;;;;;;5028952;28;20037;-44
2021/08/20 11:41:09;;;;;;;86.55;7.90;;;;;;;;;;5033476;28;20029;-44
2021/08/20 11:43:36;;;;;;;68.72;8.20;;;;;;;;;;5033692;28;20013;-44
2021/08/20 11:46:08;;;;;;;267.80;23.25;;;;;;;;;;5033284;28;20091;-45
2021/08/20 11:48:42;;;;;;;111.95;8.90;;;;;;;;;;5030375;28;20354;-43
2021/08/20 11:51:10;;;;;;;81.82;7.25;;;;;;;;;;5033515;28;20033;-46
2021/08/20 11:53:43;;;;;;;91.22;8.32;;;;;;;;;;5032155;28;20087;-46
2021/08/20 11:56:14;;;;;;;73.18;7.72;;;;;;;;;;5033094;28;20090;-45
2021/08/20 11:58:41;;;;;;;67.38;7.00;;;;;;;;;;5017705;28;20146;-43
2021/08/20 12:01:15;;;;;;;61.00;6.35;;;;;;;;;;5007026;28;20108;-45
2021/08/20 12:03:46;;;;;;;137.68;9.48;;;;;;;;;;5030779;28;20021;-46
2021/08/20 12:06:14;;;;;;;99.97;10.02;;;;;;;;;;5024190;28;20469;-45
2021/08/20 12:08:41;;;;;;;73.35;8.95;;;;;;;;;;5025396;28;20029;-46
2021/08/20 12:11:09;;;;;;;80.45;9.88;;;;;;;;;;5025960;28;20093;-46
2021/08/20 12:13:43;;;;;;;82.43;8.82;;;;;;;;;;5031769;28;20079;-45
2021/08/20 12:16:10;;;;;;;78.60;10.43;;;;;;;;;;5024214;28;20037;-46
2021/08/20 12:18:42;;;;;;;70.20;8.27;;;;;;;;;;5029066;28;20477;-48
2021/08/20 12:21:14;;;;;;;86.23;8.63;;;;;;;;;;5021761;28;20040;-48
2021/08/20 12:24:01;;;;;;;57.80;7.60;;;;;;;;;;5020665;28;20030;-47
2021/08/20 12:26:29;;;;;;;54.90;7.47;;;;;;;;;;5022203;28;20059;-47
2021/08/20 12:28:56;;;;;;;65.55;6.25;;;;;;;;;;5030528;28;20474;-46
2021/08/20 12:31:24;;;;;;;45.75;6.47;;;;;;;;;;5027625;28;20508;-46
2021/08/20 12:34:01;;;;;;;39.63;5.70;;;;;;;;;;5022771;28;20038;-46
2021/08/20 12:36:28;;;;;;;53.47;6.40;;;;;;;;;;5028432;28;20100;-47
2021/08/20 12:39:12;;;;;;;45.63;6.10;;;;;;;;;;5026077;28;20033;-49
2021/08/20 12:41:39;;;;;;;51.95;7.25;;;;;;;;;;5025011;28;20033;-45
2021/08/20 12:44:07;;;;;;;48.95;6.15;;;;;;;;;;5021742;28;21407;-46
2021/08/20 12:46:35;;;;;;;31.83;3.97;;;;;;;;;;5025084;28;20152;-46
2021/08/20 12:49:05;;;;;;;24.55;3.75;;;;;;;;;;5021701;28;20086;-47
2021/08/20 12:51:33;;;;;;;32.10;3.72;;;;;;;;;;5027445;28;20030;-46
2021/08/20 12:54:02;;;;;;;30.75;4.88;;;;;;;;;;5021764;28;20103;-50
2021/08/20 12:56:37;;;;;;;29.42;3.55;;;;;;;;;;5026130;28;20025;-45
2021/08/20 12:59:06;;;;;;;22.02;3.08;;;;;;;;;;5027416;28;20033;-46
2021/08/20 13:01:37;;;;;;;22.40;3.05;;;;;;;;;;5025221;28;20548;-55
2021/08/20 13:04:05;;;;;;;27.52;2.80;;;;;;;;;;5021713;28;20025;-55
2021/08/20 13:06:32;;;;;;;30.05;3.75;;;;;;;;;;5024235;28;20033;-52
2021/08/20 13:08:59;;;;;;;22.45;2.67;;;;;;;;;;5027656;28;20028;-53
2021/08/20 13:11:26;;;;;;;14.00;2.55;;;;;;;;;;5026458;28;20077;-48
2021/08/20 13:13:53;;;;;;;19.55;2.80;;;;;;;;;;5027300;28;20034;-53
2021/08/20 13:16:20;;;;;;;23.08;3.40;;;;;;;;;;5027695;28;20018;-51
2021/08/20 13:18:47;;;;;;;19.70;2.60;;;;;;;;;;5026423;28;20029;-45
2021/08/20 13:21:19;;;;;;;39.45;3.63;;;;;;;;;;5028190;28;20025;-49
2021/08/20 13:23:47;;;;;;;27.58;2.92;;;;;;;;;;5023021;28;20037;-47
2021/08/20 13:26:15;;;;;;;23.25;3.08;;;;;;;;;;5026400;28;20132;-43
2021/08/20 13:28:42;;;;;;;32.20;3.55;;;;;;;;;;5023077;28;20147;-50
2021/08/20 13:31:09;;;;;;;22.30;2.70;;;;;;;;;;5023537;28;20049;-55
2021/08/20 13:33:36;;;;;;;29.08;2.67;;;;;;;;;;5025887;28;20672;-51
2021/08/20 13:36:06;;;;;;;18.77;2.60;;;;;;;;;;5025104;28;20124;-50
2021/08/20 13:38:33;;;;;;;30.77;2.95;;;;;;;;;;5024290;28;20555;-57
2021/08/20 13:41:04;;;;;;;30.40;2.83;;;;;;;;;;5026676;28;20095;-49
2021/08/20 13:43:33;;;;;;;22.90;2.45;;;;;;;;;;5026893;28;20029;-49
2021/08/20 13:46:01;;;;;;;24.45;2.35;;;;;;;;;;5020390;28;20115;-58
2021/08/20 13:48:28;;;;;;;19.98;2.63;;;;;;;;;;5024990;28;20028;-51
2021/08/20 13:50:55;;;;;;;28.33;2.72;;;;;;;;;;5025859;28;20053;-50
2021/08/20 13:53:22;;;;;;;28.63;3.30;;;;;;;;;;5023256;28;20088;-54
2021/08/20 13:55:49;;;;;;;26.80;2.50;;;;;;;;;;5030697;28;20021;-50
2021/08/20 13:58:17;;;;;;;35.38;2.38;;;;;;;;;;5026439;28;20044;-49
2021/08/20 14:00:44;;;;;;;35.10;2.10;;;;;;;;;;5024324;28;20049;-46
2021/08/20 14:03:11;;;;;;;29.88;2.83;;;;;;;;;;5023739;28;20125;-49
2021/08/20 14:05:39;;;;;;;13.50;1.80;;;;;;;;;;5022130;28;20030;-47
2021/08/20 14:08:07;;;;;;;36.55;3.47;;;;;;;;;;5024534;28;20030;-46
2021/08/20 14:10:34;;;;;;;43.85;3.28;;;;;;;;;;5018145;28;20040;-46
2021/08/20 14:13:01;;;;;;;18.58;1.45;;;;;;;;;;5022890;28;20063;-47
2021/08/20 14:15:28;;;;;;;20.45;2.35;;;;;;;;;;5023866;28;20045;-45
2021/08/20 14:17:55;;;;;;;18.25;2.03;;;;;;;;;;5026964;28;20034;-46
2021/08/20 14:20:22;;;;;;;22.95;1.80;;;;;;;;;;5027348;28;20025;-48
2021/08/20 14:22:49;;;;;;;35.60;2.70;;;;;;;;;;5026247;28;20029;-47
2021/08/20 14:25:16;;;;;;;40.38;3.55;;;;;;;;;;5021040;28;20030;-48
2021/08/20 14:27:44;;;;;;;50.40;3.30;;;;;;;;;;5025844;28;20109;-48
2021/08/20 14:30:11;;;;;;;39.75;2.83;;;;;;;;;;5026267;28;20053;-48
2021/08/20 14:32:38;;;;;;;144.48;7.50;;;;;;;;;;5030376;28;20083;-46
2021/08/20 14:35:06;;;;;;;81.82;5.40;;;;;;;;;;5028969;28;20033;-45
2021/08/20 14:37:33;;;;;;;47.30;4.30;;;;;;;;;;5030663;28;20041;-48
2021/08/20 14:40:00;;;;;;;38.92;3.08;;;;;;;;;;5031410;28;20060;-50
2021/08/20 14:42:28;;;;;;;49.75;3.88;;;;;;;;;;5026595;28;20044;-47